Flight Track Log - Related Links

Times and Time Zones

All times are in EDT time to prevent confusion due to time zone crossing. See the EJA396 flight status page for this flight to view local times or setup timezone preferences in your user account.

Time Position Orientation Groundspeed Altitude Reporting Facility
EDT Latitude Longitude Course Direction KTS MPH feet Rate Location/Type
Wed 10:33:50 AM 39.0167 -77.5000 102° East 267 307 5,700  Level Potomac TRACON
Wed 10:34:50 AM 39.0833 -77.4500 30° Northeast 286 329 9,000 1,650 Climbing Potomac TRACON
Wed 10:35:50 AM 39.1333 -77.3833 46° Northeast 286 329 9,000 300 Level Potomac TRACON
Wed 10:36:50 AM 39.1833 -77.3000 52° Northeast 291 335 9,600 1,259 Climbing Potomac TRACON
Wed 10:39:00 AM 39.3760 -76.7712 102° East  Level Estimated
Wed 10:39:15 AM 39.3106 -77.0936 51° Northeast 320 368 13,300  Level Washington Center
Wed 10:40:16 AM 39.3328 -76.9653 77° East 347 399 15,000 1,785 Climbing Washington Center
Wed 10:41:16 AM 39.3114 -76.8281 101° East 352 405 16,900 2,420 Climbing Washington Center
Wed 10:42:15 AM 39.2939 -76.6883 99° East 366 421 19,800 2,723 Climbing Washington Center
Wed 10:43:15 AM 39.2764 -76.5486 99° East 388 447 22,300 1,587 Climbing Washington Center
Wed 10:44:16 AM 39.2567 -76.3983 100° East 406 467 23,000 353 Climbing Washington Center
Wed 10:45:14 AM 39.2389 -76.2481 99° East 412 474 23,000  Level Washington Center
Wed 10:46:14 AM 39.2186 -76.0819 99° East 417 480 23,000  Level Washington Center
Wed 10:47:15 AM 39.2047 -75.9292 97° East 422 486 23,000 992 Level Washington Center
Wed 10:48:15 AM 39.2611 -75.7953 61° Northeast 414 476 25,000 2,182 Climbing Washington Center
Wed 10:49:16 AM 39.3447 -75.6828 46° Northeast 408 470 27,400 1,573 Climbing Washington Center
Wed 10:52:00 AM 39.5839 -75.3744 45° Northeast 446 513 30,900 956 Climbing New York Center
Wed 10:53:02 AM 39.6739 -75.2536 46° Northeast 451 519 31,000 50 Climbing New York Center
Wed 10:54:00 AM 39.7511 -75.1397 49° Northeast 463 533 31,000  Level New York Center
Wed 10:55:01 AM 39.8522 -75.0000 47° Northeast 445 512 31,000  Level New York Center
Wed 10:56:02 AM 39.9314 -74.8831 49° Northeast 438 504 31,000  Level New York Center
Wed 10:57:02 AM 40.0089 -74.7547 52° Northeast 437 503 31,000  Level New York Center
Wed 10:58:00 AM 40.0819 -74.6206 55° Northeast 443 510 31,000  Level New York Center
Wed 10:59:00 AM 40.1572 -74.4889 53° Northeast 449 517 31,000  Level New York Center
Wed 11:00:01 AM 40.2281 -74.3486 56° Northeast 455 524 31,000  Level New York Center
Wed 11:01:01 AM 40.3008 -74.2164 54° Northeast 455 524 31,000  Level New York Center
Wed 11:02:02 AM 40.3714 -74.0864 55° Northeast 455 524 31,000 -29 Level New York Center
Wed 11:04:29 AM 40.5375 -73.7836 54° Northeast 429 494 30,900 -667 Descending Boston Center
Wed 11:05:29 AM 40.6081 -73.6428 57° Northeast 441 507 28,700 -2,237 Descending Boston Center
Wed 11:06:27 AM 40.6739 -73.5156 56° Northeast 441 507 26,500 -2,136 Descending Boston Center
Wed 11:07:27 AM 40.7481 -73.3908 52° Northeast 436 502 24,500 -1,736 Descending Boston Center
Wed 11:08:28 AM 40.8322 -73.2603 50° Northeast 431 496 23,000 -1,190 Descending Boston Center
Wed 11:09:28 AM 40.9206 -73.1569 41° Northeast 421 484 22,100 -1,190 Descending Boston Center
Wed 11:10:29 AM 41.0044 -73.0589 41° Northeast 408 470 20,600 -1,292 Descending Boston Center
Wed 11:11:38 AM 41.0861 -72.9633 41° Northeast 397 457 19,300 -1,431 Descending Boston Center
Wed 11:12:39 AM 41.1867 -72.8456 41° Northeast 397 457 17,500 -1,623 Descending Boston Center
Wed 11:13:40 AM 41.2661 -72.7467 43° Northeast 392 451 16,000 -1,339 Descending Boston Center
Wed 11:14:40 AM 41.3519 -72.6778 31° Northeast 371 427 14,800 -1,289 Descending Boston Center
Wed 11:15:41 AM 41.4458 -72.6394 17° North 349 402 13,400 -893 Descending Boston Center
Wed 11:16:41 AM 41.5353 -72.5981 19° North 344 396 13,000 -389 Descending Boston Center
Wed 11:17:29 AM 41.6147 -72.5622 19° North 347 399 12,700 -500 Descending Boston Center
Wed 11:17:41 AM 41.6272 -72.5539 26° Northeast 344 396 12,500 -1,180 Descending Boston Center
Wed 11:18:30 AM 41.6939 -72.4900 36° Northeast 344 396 11,500 -1,138 Descending Boston Center
Wed 11:18:39 AM 41.6981 -72.4872 26° Northeast 338 389 11,400 -500 Descending Boston Center
Wed 11:19:30 AM 41.7669 -72.4094 40° Northeast 343 395 11,000 -400 Descending Boston Center
Wed 11:19:39 AM 41.7772 -72.3983 39° Northeast 338 389 11,000  Level Boston Center
Wed 11:20:34 AM 41.8417 -72.3286 39° Northeast 345 397 11,000  Level Boston Center
Wed 11:20:40 AM 41.8458 -72.3258 26° Northeast 338 389 11,000  Level Boston Center
Wed 11:21:34 AM 41.9147 -72.2447 41° Northeast 344 396 11,000 -100 Level Boston Center
Wed 11:21:40 AM 41.9231 -72.2336 45° Northeast 338 389 10,900 -1,254 Descending Boston Center
Wed 11:22:41 AM 41.9792 -72.1719 39° Northeast 309 356 9,600 -1,670 Descending Boston Center
Wed 11:23:35 AM 42.0394 -72.1047 40° Northeast 267 307 7,700 -2,000 Descending Boston Center
Wed 11:23:41 AM 42.0436 -72.0992 45° Northeast 277 319 7,600 -2,000 Descending Boston Center
Wed 11:24:41 AM 42.0956 -72.0400 40° Northeast 272 313 5,500 -2,137 Descending Boston Center
Wed 11:24:54 AM 42.1119 -72.0203 42° Northeast 262 302 5,000 -545 Descending Boston Center
Wed 11:25:36 AM 42.1494 -71.9808 38° Northeast 235 270 5,000  Level Boston Center
Wed 11:25:39 AM 42.1514 -71.9781 47° Northeast 250 288 5,000  Level Boston Center
Wed 11:26:39 AM 42.1992 -71.9244 40° Northeast 245 282 5,000  Level Boston Center
Wed 11:27:40 AM 42.2592 -71.8567 40° Northeast 257 296 5,000  Level Boston Center
Wed 11:28:41 AM 42.3111 -71.8000 39° Northeast 252 290 5,000  Level Boston Center
Wed 11:29:41 AM 42.3628 -71.7292 45° Northeast 252 290 5,000 -102 Level Boston Center
Wed 11:30:39 AM 42.3767 -71.6475 77° East 237 273 4,800 -611 Descending Boston Center
Wed 11:31:29 AM 42.3833 -71.5500 85° East 258 297 3,900 -1,189 Descending KA90
Wed 11:32:30 AM 42.4000 -71.4667 75° East 243 280 2,600 -942 Descending KA90
Wed 11:33:30 AM 42.4167 -71.3833 75° East 213 245 2,000 -600 Descending KA90
Wed 11:34:30 AM 42.4333 -71.3333 66° East 139 160 1,400 -762 Descending KA90
Wed 11:35:36 AM 42.4500 -71.3000 56° Northeast 124 143 400 -909 Descending KA90
Wed 11:38:00 AM 42.4667 -71.2833 66° East  Level FlightAware Approximate

Login

Don't have an account? Register now (free) for customized features, flight alerts, and more!